Time;durP1;ratioP1;P1;durP2;ratioP2;P2;SDS_P1;SDS_P2;PMS_P1;PMS_P2;Temp;Humidity;BMP_temperature;BMP_pressure;BME280_temperature;BME280_humidity;BME280_pressure;Samples;Min_cycle;Max_cycle;Signal;HPM_P1;HPM_P2
2023/01/01 00:01:51;;;;;;;;;2.25;2.25;;;;;19.94;40.18;100846.75;5086588;28;45370;-48
2023/01/01 00:04:17;;;;;;;;;1.00;1.00;;;;;19.95;40.29;100839.72;5100416;28;59709;-48
2023/01/01 00:06:42;;;;;;;;;5.00;2.25;;;;;19.95;40.27;100851.09;5084933;28;59179;-50
2023/01/01 00:11:52;;;;;;;;;3.00;3.00;;;;;19.94;39.77;100844.13;5101568;28;45107;-50
2023/01/01 00:14:17;;;;;;;;;2.00;2.00;;;;;19.93;40.11;100838.03;5085355;28;45326;-51
2023/01/01 00:16:43;;;;;;;;;2.00;2.00;;;;;19.93;40.27;100847.69;5080141;28;45303;-52
2023/01/01 00:19:08;;;;;;;;;3.00;2.50;;;;;19.94;40.20;100849.38;5078433;28;48100;-45
2023/01/01 00:21:33;;;;;;;;;3.00;1.00;;;;;19.94;39.71;100849.38;5079236;28;45273;-49
2023/01/01 00:23:59;;;;;;;;;2.75;2.00;;;;;19.93;40.34;100852.94;5079896;28;45433;-49
2023/01/01 00:26:24;;;;;;;;;2.67;2.00;;;;;19.93;40.28;100852.94;5078927;28;50941;-49
2023/01/01 00:28:49;;;;;;;;;4.50;3.00;;;;;19.92;40.23;100846.84;5081548;28;46068;-51
2023/01/01 00:31:18;;;;;;;;;3.00;3.00;;;;;19.93;40.23;100848.56;5082588;28;45543;-50
2023/01/01 00:33:52;;;;;;;;;3.50;2.25;;;;;19.87;40.08;100845.38;5082011;28;45410;-50
2023/01/01 00:36:18;;;;;;;;;1.00;1.00;;;;;19.93;40.26;100859.06;5079349;28;45303;-49
2023/01/01 00:38:44;;;;;;;;;3.00;3.00;;;;;19.87;40.03;100842.75;5079094;28;46310;-51
2023/01/01 00:41:11;;;;;;;;;3.00;3.00;;;;;19.93;40.36;100850.31;5078570;28;45807;-46
2023/01/01 00:43:37;;;;;;;;;2.50;2.50;;;;;19.93;39.91;100837.16;5079587;28;45397;-52
2023/01/01 00:46:04;;;;;;;;;4.00;2.50;;;;;19.98;40.31;100850.94;5078973;28;45531;-52
2023/01/01 00:48:30;;;;;;;;;3.75;3.75;;;;;19.98;40.23;100840.41;5077649;28;45450;-48
2023/01/01 00:50:55;;;;;;;;;3.25;3.00;;;;;19.98;39.95;100850.94;5094281;28;45288;-47
2023/01/01 00:53:21;;;;;;;;;2.75;2.75;;;;;19.98;40.32;100839.53;5084101;28;45422;-49
2023/01/01 00:55:48;;;;;;;;;5.00;3.00;;;;;20.00;40.31;100845.59;5079293;28;45295;-53
2023/01/01 00:58:15;;;;;;;;;3.00;3.00;;;;;19.99;39.99;100842.13;5078835;28;46339;-58
2023/01/01 01:00:41;;;;;;;;;5.00;3.00;;;;;19.99;40.26;100841.25;5078830;28;45293;-55
2023/01/01 01:03:06;;;;;;;;;2.00;1.50;;;;;19.98;39.78;100832.53;5079057;28;45812;-53
2023/01/01 01:05:32;;;;;;;;;3.00;2.00;;;;;19.93;39.93;100834.53;5078595;28;45890;-51
2023/01/01 01:07:58;;;;;;;;;4.00;3.00;;;;;19.96;40.08;100831.75;5077729;28;46460;-58
2023/01/01 01:10:24;;;;;;;;;1.00;1.00;;;;;19.92;40.35;100832.84;5077439;28;45331;-45
2023/01/01 01:12:51;;;;;;;;;2.75;2.75;;;;;19.99;39.99;100838.63;5077162;28;45430;-62
2023/01/01 01:15:16;;;;;;;;;3.00;2.00;;;;;19.98;40.44;100850.94;5077178;28;45339;-54
2023/01/01 01:17:42;;;;;;;;;2.25;2.25;;;;;19.98;40.35;100850.94;5077115;28;46803;-60
2023/01/01 01:20:08;;;;;;;;;3.50;2.00;;;;;19.92;40.12;100840.72;5076971;28;45326;-50
2023/01/01 01:22:36;;;;;;;;;4.75;3.00;;;;;19.98;39.85;100845.69;5077232;28;45396;-64
2023/01/01 01:25:01;;;;;;;;;1.75;1.75;;;;;19.99;40.03;100852.63;5078788;28;45581;-61
2023/01/01 01:27:27;;;;;;;;;3.75;3.75;;;;;19.97;40.18;100854.50;5103529;27;45191;-50
2023/01/01 01:29:52;;;;;;;;;2.00;2.00;;;;;19.97;39.96;100865.03;5101706;28;45301;-51
2023/01/01 01:32:18;;;;;;;;;5.25;3.00;;;;;19.97;40.36;100859.75;5077771;28;45196;-56
2023/01/01 01:34:44;;;;;;;;;4.50;2.75;;;;;19.89;40.42;100839.13;5078121;28;45212;-45
2023/01/01 01:37:10;;;;;;;;;4.50;3.00;;;;;19.97;40.53;100858.88;5059549;28;47818;-50
2023/01/01 01:39:36;;;;;;;;;4.00;2.25;;;;;19.89;40.27;100856.69;5077147;28;45421;-49
2023/01/01 01:42:02;;;;;;;;;5.00;4.00;;;;;19.98;40.25;100871.13;5077808;28;45966;-47
2023/01/01 01:44:47;;;;;;;;;4.25;3.00;;;;;19.95;40.15;100877.41;5077046;28;45616;-50
2023/01/01 01:47:19;;;;;;;;;3.75;2.00;;;;;19.96;40.18;100887.00;5078150;28;47267;-46
2023/01/01 01:49:44;;;;;;;;;3.50;2.25;;;;;19.97;39.97;100890.47;5077143;28;45923;-50
2023/01/01 01:52:10;;;;;;;;;3.00;3.00;;;;;19.95;40.08;100877.41;5077788;28;45350;-49
2023/01/01 01:54:36;;;;;;;;;2.00;2.00;;;;;19.96;40.50;100894.88;5078456;28;45313;-47
2023/01/01 01:57:08;;;;;;;;;2.50;2.00;;;;;19.95;40.10;100882.66;5078215;28;48653;-46
2023/01/01 01:59:41;;;;;;;;;3.00;3.00;;;;;19.91;40.25;100884.59;5099294;28;45221;-48
2023/01/01 02:02:15;;;;;;;;;2.00;2.00;;;;;19.97;40.55;100895.72;5083676;28;45371;-50
2023/01/01 02:04:41;;;;;;;;;5.25;2.25;;;;;19.98;40.20;100905.31;5097364;28;45323;-51
2023/01/01 02:07:07;;;;;;;;;5.75;3.25;;;;;19.97;40.43;100912.38;5094985;28;44966;-50
2023/01/01 02:09:33;;;;;;;;;3.00;3.00;;;;;19.97;40.51;100908.88;5087160;28;45208;-50
2023/01/01 02:11:58;;;;;;;;;2.00;2.00;;;;;19.98;40.70;100907.94;5092251;28;45290;-49
2023/01/01 02:14:23;;;;;;;;;3.00;3.00;;;;;19.97;40.26;100895.72;5078039;28;45224;-48
2023/01/01 02:16:56;;;;;;;;;2.50;2.00;;;;;19.95;40.35;100908.13;5077580;28;45279;-48
2023/01/01 02:19:54;;;;;;;;;3.00;3.00;;;;;19.97;40.40;100928.16;5085492;28;45148;-48
2023/01/01 02:22:28;;;;;;;;;3.75;3.00;;;;;19.90;40.54;100921.50;5081339;28;45370;-46
2023/01/01 02:24:53;;;;;;;;;3.00;3.00;;;;;19.90;40.68;100917.09;5078215;28;45490;-47
2023/01/01 02:27:55;;;;;;;;;5.00;3.67;;;;;19.97;40.20;100916.75;5077094;28;52785;-48
2023/01/01 02:30:20;;;;;;;;;3.00;3.00;;;;;19.96;40.91;100918.56;5077247;28;45366;-48
2023/01/01 02:33:01;;;;;;;;;4.00;3.00;;;;;19.94;40.87;100912.53;5077774;28;45422;-48
2023/01/01 02:35:37;;;;;;;;;3.00;3.00;;;;;19.93;40.46;100913.44;5077521;28;45269;-48
2023/01/01 02:38:18;;;;;;;;;2.25;2.25;;;;;19.91;40.57;100920.56;5076743;28;46172;-48
2023/01/01 02:40:47;;;;;;;;;3.00;3.00;;;;;19.95;40.51;100929.16;5077774;28;45275;-49
2023/01/01 02:43:12;;;;;;;;;5.50;2.50;;;;;19.95;40.76;100940.53;5081424;28;45453;-49
2023/01/01 02:45:38;;;;;;;;;2.00;2.00;;;;;19.88;40.75;100928.63;5081321;28;45322;-51
2023/01/01 02:48:05;;;;;;;;;2.00;2.00;;;;;19.93;40.40;100929.22;5080030;28;64000;-46
2023/01/01 02:50:32;;;;;;;;;3.00;3.00;;;;;19.88;40.64;100929.47;5081289;28;45331;-46
2023/01/01 02:53:02;;;;;;;;;3.75;3.00;;;;;19.94;40.75;100944.09;5081412;28;45355;-48
2023/01/01 02:55:31;;;;;;;;;3.00;3.00;;;;;19.90;40.83;100943.41;5101683;28;44733;-51
2023/01/01 03:01:02;;;;;;;;;3.00;2.00;;;;;19.94;40.85;100954.59;5080750;28;45834;-45
2023/01/01 03:03:41;;;;;;;;;5.00;3.00;;;;;19.94;40.39;100941.47;5080348;28;45347;-49
2023/01/01 03:06:25;;;;;;;;;3.00;3.00;;;;;19.94;40.86;100936.19;5080675;28;45417;-48
2023/01/01 03:09:11;;;;;;;;;4.00;3.00;;;;;19.93;40.49;100938.00;5079898;28;46101;-48
2023/01/01 03:11:47;;;;;;;;;4.00;3.00;;;;;19.91;40.89;100945.09;5079690;28;45457;-52
2023/01/01 03:14:12;;;;;;;;;1.00;1.00;;;;;19.94;40.99;100946.72;5080160;28;45285;-48
2023/01/01 03:16:58;;;;;;;;;4.75;2.75;;;;;19.92;40.87;100933.66;5080086;28;45547;-48
2023/01/01 03:19:28;;;;;;;;;3.75;3.75;;;;;19.93;40.53;100931.84;5079696;28;45361;-51
2023/01/01 03:22:08;;;;;;;;;4.00;3.00;;;;;19.93;40.86;100938.00;5080092;28;45239;-46
2023/01/01 03:24:39;;;;;;;;;3.50;3.50;;;;;19.93;40.42;100950.28;5079867;28;45345;-49
2023/01/01 03:27:17;;;;;;;;;5.00;4.00;;;;;19.94;40.37;100957.25;5062364;28;45665;-48
2023/01/01 03:29:44;;;;;;;;;2.00;2.00;;;;;19.93;40.61;100951.16;5098517;28;45497;-46
2023/01/01 03:32:14;;;;;;;;;2.25;2.00;;;;;19.86;40.64;100943.63;5084964;27;45408;-49
2023/01/01 03:34:46;;;;;;;;;3.00;2.75;;;;;19.93;40.86;100955.53;5080768;28;45386;-47
2023/01/01 03:37:18;;;;;;;;;3.00;3.00;;;;;19.93;40.55;100976.59;5080266;28;45473;-48
2023/01/01 03:39:49;;;;;;;;;3.00;3.00;;;;;19.93;41.07;100974.81;5079765;28;46070;-48
2023/01/01 03:42:37;;;;;;;;;5.00;3.75;;;;;19.94;40.72;100967.75;5080411;28;45520;-53
2023/01/01 03:45:18;;;;;;;;;5.00;2.75;;;;;19.87;40.83;100969.00;5080260;28;45357;-47
2023/01/01 03:47:44;;;;;;;;;4.00;3.00;;;;;19.93;40.69;100966.06;5080471;28;45506;-47
2023/01/01 03:50:11;;;;;;;;;3.75;3.75;;;;;19.87;41.02;100956.69;5079857;28;46195;-49
2023/01/01 03:53:01;;;;;;;;;3.00;2.25;;;;;19.93;40.94;100964.28;5088207;28;45306;-54
2023/01/01 03:55:44;;;;;;;;;3.00;3.00;;;;;19.91;40.79;100968.78;5099035;28;45732;-49
2023/01/01 03:58:23;;;;;;;;;3.50;3.00;;;;;19.86;40.93;100968.16;5093707;28;45232;-47
2023/01/01 04:00:59;;;;;;;;;3.00;3.00;;;;;19.91;40.89;100986.31;5080582;28;45321;-50
2023/01/01 04:03:27;;;;;;;;;4.00;3.50;;;;;19.92;41.00;100981.00;5079904;28;45793;-48
2023/01/01 04:05:53;;;;;;;;;5.50;4.00;;;;;19.92;40.94;100988.03;5098594;27;44728;-47
2023/01/01 04:08:18;;;;;;;;;5.50;3.00;;;;;19.92;40.75;100988.03;5095472;28;45362;-51
2023/01/01 04:10:55;;;;;;;;;3.00;3.00;;;;;19.92;41.22;101009.06;5081128;28;45556;-51
2023/01/01 04:13:21;;;;;;;;;3.25;3.25;;;;;19.88;41.25;100997.03;5079920;28;45333;-46
2023/01/01 04:15:46;;;;;;;;;4.00;3.00;;;;;19.92;40.87;101001.19;5078989;28;45361;-51
2023/01/01 04:18:11;;;;;;;;;3.67;3.00;;;;;19.92;40.77;100993.28;5097507;28;61290;-48
2023/01/01 04:20:37;;;;;;;;;4.75;3.00;;;;;19.91;40.75;100999.47;5082747;27;56351;-48
2023/01/01 04:23:02;;;;;;;;;3.00;3.00;;;;;19.92;41.34;101009.06;5077401;28;66141;-49
2023/01/01 04:25:29;;;;;;;;;3.25;3.00;;;;;19.92;40.88;101006.44;5078209;28;45408;-46
2023/01/01 04:27:54;;;;;;;;;3.00;3.00;;;;;19.91;41.09;101008.22;5078165;28;45327;-46
2023/01/01 04:30:20;;;;;;;;;4.00;3.00;;;;;19.92;40.86;101022.22;5078096;28;46536;-49
2023/01/01 04:32:46;;;;;;;;;3.75;3.75;;;;;19.90;41.17;101011.78;5059785;28;45395;-52
2023/01/01 04:35:13;;;;;;;;;4.00;3.00;;;;;19.91;41.17;101013.50;5059336;28;54105;-49
2023/01/01 04:37:40;;;;;;;;;2.50;2.00;;;;;19.84;40.98;101006.81;5078119;28;45453;-46
2023/01/01 04:40:06;;;;;;;;;4.50;3.00;;;;;19.91;40.96;101024.03;5077572;28;46333;-51
2023/01/01 04:42:31;;;;;;;;;3.00;3.00;;;;;19.91;40.98;101013.50;5094643;27;45817;-47
2023/01/01 04:44:57;;;;;;;;;4.00;4.00;;;;;19.91;40.88;101026.66;5098795;27;45353;-50
2023/01/01 04:47:22;;;;;;;;;5.75;3.50;;;;;19.92;41.08;101015.19;5099743;27;46250;-49
2023/01/01 04:49:47;;;;;;;;;4.00;3.00;;;;;19.92;41.35;101017.84;5119023;27;45205;-51
2023/01/01 04:52:13;;;;;;;;;3.67;3.00;;;;;19.91;41.30;101024.03;5099327;27;60095;-47
2023/01/01 04:54:38;;;;;;;;;3.00;3.00;;;;;19.87;41.10;101011.09;5099401;27;45181;-45
2023/01/01 04:57:04;;;;;;;;;3.25;3.25;;;;;19.92;41.19;101033.63;5098479;27;46498;-49
2023/01/01 04:59:30;;;;;;;;;2.50;2.50;;;;;19.91;41.00;101017.88;5097735;27;46895;-52
2023/01/01 05:01:56;;;;;;;;;5.00;3.25;;;;;19.90;41.15;101016.19;5099395;27;45334;-46
2023/01/01 05:04:21;;;;;;;;;5.50;4.00;;;;;19.92;41.62;101030.13;5099266;27;45421;-47
2023/01/01 05:06:46;;;;;;;;;5.50;4.50;;;;;19.90;41.34;101022.31;5101336;27;45608;-47
2023/01/01 05:09:12;;;;;;;;;3.00;3.00;;;;;19.91;41.01;101021.38;5099993;27;46329;-48
2023/01/01 05:11:37;;;;;;;;;2.00;2.00;;;;;19.90;41.66;101031.97;5100060;27;45452;-48
2023/01/01 05:14:03;;;;;;;;;4.00;3.00;;;;;19.91;41.52;101031.91;5100392;27;45329;-48
2023/01/01 05:16:33;;;;;;;;;6.00;3.00;;;;;19.92;41.14;101045.91;5103105;27;45400;-46
2023/01/01 05:18:59;;;;;;;;;3.00;3.00;;;;;19.91;41.70;101049.47;5103789;27;48734;-47
2023/01/01 05:21:32;;;;;;;;;5.00;3.75;;;;;19.90;41.45;101051.25;5110274;27;58732;-49
2023/01/01 05:24:09;;;;;;;;;3.00;3.00;;;;;19.91;41.50;101057.34;5104261;27;45322;-47
2023/01/01 05:26:37;;;;;;;;;4.00;2.50;;;;;19.91;41.28;101058.22;5098816;27;45372;-47
2023/01/01 05:29:03;;;;;;;;;3.25;3.25;;;;;19.91;41.39;101070.50;5098461;27;45958;-49
2023/01/01 05:31:31;;;;;;;;;2.75;2.75;;;;;19.91;41.55;101078.38;5099679;27;45453;-45
2023/01/01 05:33:57;;;;;;;;;4.25;4.00;;;;;19.91;41.69;101068.75;5102850;27;45340;-45
2023/01/01 05:36:26;;;;;;;;;3.25;3.25;;;;;19.89;41.18;101069.75;5106547;27;45240;-57
2023/01/01 05:38:52;;;;;;;;;3.00;3.00;;;;;19.89;41.36;101070.59;5105426;27;46067;-50
2023/01/01 05:41:19;;;;;;;;;3.00;3.00;;;;;19.91;41.77;101081.03;5111310;27;45346;-48
2023/01/01 05:43:45;;;;;;;;;2.50;2.50;;;;;19.85;41.54;101070.78;5100639;27;45408;-46
2023/01/01 05:46:14;;;;;;;;;3.00;3.00;;;;;19.85;41.63;101076.88;5105820;27;45560;-56
2023/01/01 05:48:40;;;;;;;;;2.00;2.00;;;;;19.89;41.75;101083.75;5100410;27;46240;-48
2023/01/01 05:51:11;;;;;;;;;4.00;3.00;;;;;19.86;41.18;101078.63;5103358;27;45329;-47
2023/01/01 05:53:36;;;;;;;;;2.25;2.00;;;;;19.85;41.14;101081.31;5102318;27;45278;-48
2023/01/01 05:56:02;;;;;;;;;3.75;3.25;;;;;19.91;41.09;101087.16;5106053;27;45341;-49
2023/01/01 05:58:30;;;;;;;;;5.25;3.25;;;;;19.89;41.31;101083.75;5099200;27;46226;-53
2023/01/01 06:00:56;;;;;;;;;3.00;3.00;;;;;19.91;41.70;101087.16;5098772;27;45438;-48
2023/01/01 06:03:21;;;;;;;;;5.50;4.25;;;;;19.86;41.78;101085.66;5098800;27;45313;-47
2023/01/01 06:05:47;;;;;;;;;3.75;3.75;;;;;19.90;41.36;101088.06;5097716;27;45512;-49
2023/01/01 06:08:12;;;;;;;;;5.00;3.75;;;;;19.91;41.61;101078.38;5109965;27;50021;-48
2023/01/01 06:10:38;;;;;;;;;4.75;3.00;;;;;19.91;41.50;101076.63;5102315;27;45338;-48
2023/01/01 06:13:04;;;;;;;;;3.25;2.75;;;;;19.87;41.75;101064.53;5098630;27;45350;-50
2023/01/01 06:15:30;;;;;;;;;3.25;2.50;;;;;19.88;41.57;101065.41;5098997;27;45319;-48
2023/01/01 06:17:57;;;;;;;;;5.00;3.00;;;;;19.83;41.73;101056.84;5102039;27;46726;-47
2023/01/01 06:20:23;;;;;;;;;2.75;2.75;;;;;19.85;41.39;101065.53;5101291;27;45238;-51
2023/01/01 06:22:48;;;;;;;;;3.00;3.00;;;;;19.88;41.93;101060.16;5101688;27;45376;-47
2023/01/01 06:25:13;;;;;;;;;3.67;3.00;;;;;19.84;41.85;101053.28;5101604;27;55275;-48
2023/01/01 06:27:39;;;;;;;;;3.00;3.00;;;;;19.83;41.87;101062.97;5101932;27;45377;-45
2023/01/01 06:30:05;;;;;;;;;6.00;3.00;;;;;19.89;41.41;101067.13;5101743;27;45258;-48
2023/01/01 06:32:31;;;;;;;;;2.50;2.50;;;;;19.89;41.99;101053.97;5083970;27;45326;-50
2023/01/01 06:34:56;;;;;;;;;4.50;2.75;;;;;19.89;41.82;101053.97;5102364;27;45600;-48
2023/01/01 06:37:22;;;;;;;;;3.00;3.00;;;;;19.82;41.46;101050.75;5100883;27;45943;-48
2023/01/01 06:39:47;;;;;;;;;4.00;3.75;;;;;19.88;41.38;101057.53;5100710;27;49130;-51
2023/01/01 06:42:12;;;;;;;;;3.50;3.50;;;;;19.88;42.03;101070.69;5101458;27;45336;-52
2023/01/01 06:44:38;;;;;;;;;3.00;2.00;;;;;19.88;41.70;101084.66;5117523;27;45272;-47
2023/01/01 06:47:03;;;;;;;;;3.50;2.75;;;;;19.89;41.60;101093.44;5121885;27;45068;-52
2023/01/01 06:49:28;;;;;;;;;4.25;3.50;;;;;19.88;41.50;101092.56;5102806;27;45400;-46
2023/01/01 06:51:54;;;;;;;;;5.50;4.00;;;;;19.89;41.93;101101.31;5101087;27;59106;-45
2023/01/01 06:54:19;;;;;;;;;4.00;3.00;;;;;19.81;42.05;101090.25;5102336;27;45333;-48
2023/01/01 06:56:45;;;;;;;;;3.00;3.00;;;;;19.88;42.08;101115.38;5101298;27;52115;-46
2023/01/01 06:59:10;;;;;;;;;4.00;3.00;;;;;19.87;41.67;101097.91;5100329;27;66597;-45
2023/01/01 07:01:38;;;;;;;;;3.00;3.00;;;;;19.87;41.85;101106.63;5101428;27;45442;-49
2023/01/01 07:04:07;;;;;;;;;3.50;3.00;;;;;19.88;41.72;101123.28;5101913;27;45418;-50
2023/01/01 07:06:33;;;;;;;;;4.25;4.25;;;;;19.89;41.75;101123.19;5101911;27;46252;-48
2023/01/01 07:08:59;;;;;;;;;3.50;3.00;;;;;19.88;42.23;101128.53;5100696;27;45344;-48
2023/01/01 07:11:25;;;;;;;;;3.00;3.00;;;;;19.88;42.00;101129.38;5100933;27;45326;-47
2023/01/01 07:13:51;;;;;;;;;2.50;2.50;;;;;19.88;41.81;101128.53;5109365;27;45219;-51
2023/01/01 07:16:17;;;;;;;;;3.00;3.00;;;;;19.89;41.82;101132.88;5106767;27;45822;-59
2023/01/01 07:18:42;;;;;;;;;3.00;2.00;;;;;19.86;41.99;101130.38;5102927;27;45291;-53
2023/01/01 07:21:29;;;;;;;;;4.50;3.25;;;;;19.87;41.73;101138.19;5105890;27;45432;-52
2023/01/01 07:23:56;;;;;;;;;4.50;2.75;;;;;19.84;42.05;101135.69;5103162;27;45552;-61
2023/01/01 07:26:25;;;;;;;;;3.75;2.75;;;;;19.82;42.29;101137.53;5109596;27;46607;-50
2023/01/01 07:28:51;;;;;;;;;3.00;3.00;;;;;19.88;42.12;101144.31;5109573;27;45188;-50
2023/01/01 07:31:16;;;;;;;;;3.00;3.00;;;;;19.88;41.96;101153.06;5113365;27;45218;-49
2023/01/01 07:33:41;;;;;;;;;3.00;3.00;;;;;19.86;41.87;101161.94;5120484;27;45152;-53
2023/01/01 07:36:07;;;;;;;;;5.00;3.00;;;;;19.88;41.93;101157.47;5099538;27;72639;-48
2023/01/01 07:38:32;;;;;;;;;3.00;3.00;;;;;19.88;42.33;101165.38;5100494;27;45311;-48
2023/01/01 07:40:58;;;;;;;;;2.25;2.25;;;;;19.88;41.80;101168.00;5101916;27;50464;-48
2023/01/01 07:43:23;;;;;;;;;3.00;3.00;;;;;19.88;41.80;101160.09;5112205;27;45474;-47
2023/01/01 07:45:48;;;;;;;;;2.25;2.00;;;;;19.88;41.79;101165.38;5110242;27;61266;-47
2023/01/01 07:48:14;;;;;;;;;3.25;2.50;;;;;19.88;42.41;101160.09;5118009;27;44713;-48
2023/01/01 07:50:41;;;;;;;;;4.75;3.00;;;;;19.86;42.20;101162.78;5108313;27;45791;-53
2023/01/01 07:53:06;;;;;;;;;5.50;3.00;;;;;19.86;41.93;101167.22;5101269;27;45564;-45
2023/01/01 07:55:33;;;;;;;;;3.75;3.00;;;;;19.87;41.86;101174.19;5100962;27;47090;-47
2023/01/01 07:57:58;;;;;;;;;3.25;2.75;;;;;19.82;42.54;101168.25;5099767;27;45354;-50
2023/01/01 08:00:23;;;;;;;;;3.50;2.50;;;;;19.87;42.03;101187.34;5099900;27;45396;-50
2023/01/01 08:02:49;;;;;;;;;3.00;3.00;;;;;19.86;42.27;101191.72;5100178;27;45467;-52
2023/01/01 08:05:14;;;;;;;;;3.25;3.25;;;;;19.88;42.00;101202.19;5099556;27;49995;-46
2023/01/01 08:07:45;;;;;;;;;2.75;2.00;;;;;19.87;41.85;101211.84;5099849;27;45327;-47
2023/01/01 08:10:10;;;;;;;;;5.00;3.00;;;;;19.87;42.15;101216.28;5100088;27;45372;-50
2023/01/01 08:12:35;;;;;;;;;5.00;3.00;;;;;19.88;42.34;101207.47;5099295;27;50865;-46
2023/01/01 08:15:01;;;;;;;;;2.00;2.00;;;;;19.88;42.01;101212.72;5099049;27;45371;-49
2023/01/01 08:17:26;;;;;;;;;2.75;2.00;;;;;19.88;41.96;101212.72;5099854;27;45335;-48
2023/01/01 08:19:52;;;;;;;;;4.00;4.00;;;;;19.87;42.14;101217.09;5098195;27;61890;-50
2023/01/01 08:22:17;;;;;;;;;2.50;2.50;;;;;19.87;42.05;101222.38;5099667;27;45462;-48
2023/01/01 08:24:42;;;;;;;;;4.75;3.00;;;;;19.82;42.63;101223.47;5099591;27;46277;-47
2023/01/01 08:27:12;;;;;;;;;5.50;3.00;;;;;19.86;42.66;101228.56;5099346;27;51510;-53
2023/01/01 08:29:37;;;;;;;;;2.25;2.25;;;;;19.88;42.06;101234.59;5099208;27;45299;-48
2023/01/01 08:32:03;;;;;;;;;3.00;2.00;;;;;19.88;42.01;101239.03;5103042;27;45353;-48
2023/01/01 08:34:28;;;;;;;;;3.50;3.50;;;;;19.83;42.02;101230.44;5102964;27;46441;-52
2023/01/01 08:36:54;;;;;;;;;5.00;3.00;;;;;19.87;42.08;101238.16;5099810;27;45232;-48
2023/01/01 08:39:19;;;;;;;;;4.00;4.00;;;;;19.88;42.07;101245.13;5097991;27;54950;-48
2023/01/01 08:41:44;;;;;;;;;2.67;2.67;;;;;19.88;42.59;101244.28;5099438;27;46201;-48
2023/01/01 08:44:09;;;;;;;;;4.00;4.00;;;;;19.88;42.59;101244.28;5097886;27;68248;-46
2023/01/01 08:46:35;;;;;;;;;3.50;2.00;;;;;19.75;42.71;101223.78;5106385;27;45540;-48
2023/01/01 08:49:00;;;;;;;;;3.00;3.00;;;;;19.88;42.39;101244.28;5107448;27;45422;-49
2023/01/01 08:51:25;;;;;;;;;4.33;3.00;;;;;19.82;42.68;101231.38;5098924;27;54937;-47
2023/01/01 08:53:51;;;;;;;;;4.00;2.33;;;;;19.82;42.22;101242.75;5098125;27;58976;-49
2023/01/01 08:56:16;;;;;;;;;4.25;4.00;;;;;19.87;42.47;101243.41;5104793;27;45378;-51
2023/01/01 08:58:42;;;;;;;;;4.25;2.75;;;;;19.81;42.67;101222.63;5116173;27;45271;-47
2023/01/01 09:01:09;;;;;;;;;5.00;4.00;;;;;19.81;42.83;101227.03;5108562;27;45275;-57
2023/01/01 09:03:34;;;;;;;;;4.00;4.00;;;;;19.83;42.57;101233.06;5100097;27;45412;-59
2023/01/01 09:05:59;;;;;;;;;6.25;3.00;;;;;19.76;42.32;101216.72;5099939;27;45344;-48
2023/01/01 09:08:25;;;;;;;;;3.00;3.00;;;;;19.77;42.53;101226.31;5100561;27;45170;-48
2023/01/01 09:10:51;;;;;;;;;7.00;4.00;;;;;19.68;43.15;101211.81;5098365;27;45849;-50
2023/01/01 09:13:20;;;;;;;;;4.00;3.50;;;;;19.69;42.74;101213.50;5098833;27;45397;-48
2023/01/01 09:15:46;;;;;;;;;3.50;3.50;;;;;19.67;42.75;101210.13;5099387;27;45503;-48
2023/01/01 09:18:12;;;;;;;;;4.00;2.50;;;;;19.67;42.76;101204.88;5098869;27;45406;-49
2023/01/01 09:20:38;;;;;;;;;4.75;2.75;;;;;19.65;42.57;101209.34;5104683;27;45557;-47
2023/01/01 09:23:04;;;;;;;;;8.00;3.75;;;;;19.57;42.82;101200.91;5123429;27;46245;-47
2023/01/01 09:25:30;;;;;;;;;5.00;3.00;;;;;19.61;42.65;101210.38;5122815;27;45299;-47
2023/01/01 09:27:57;;;;;;;;;4.25;4.00;;;;;19.58;42.78;101205.25;5102073;27;45253;-47
2023/01/01 09:30:24;;;;;;;;;3.00;3.00;;;;;19.56;43.39;101213.22;5115734;27;45313;-46
2023/01/01 09:32:49;;;;;;;;;7.50;3.75;;;;;19.49;42.76;101195.16;5103899;27;45347;-46
2023/01/01 09:35:15;;;;;;;;;3.00;3.00;;;;;19.53;43.37;101200.22;5099057;27;45415;-46
2023/01/01 09:37:40;;;;;;;;;3.25;3.00;;;;;19.56;43.29;101194.00;5098951;27;45345;-47
2023/01/01 09:40:07;;;;;;;;;6.25;4.00;;;;;19.49;42.83;101190.78;5097759;27;51773;-50
2023/01/01 09:42:47;;;;;;;;;3.25;3.25;;;;;19.51;42.88;101209.97;5099737;27;46178;-47
2023/01/01 09:45:22;;;;;;;;;5.25;4.00;;;;;19.56;43.46;101217.66;5115734;27;44999;-47
2023/01/01 09:47:56;;;;;;;;;6.00;3.00;;;;;19.55;42.92;101215.94;5101850;27;45390;-48
2023/01/01 09:50:43;;;;;;;;;5.25;4.50;;;;;19.55;42.92;101227.28;5098286;27;45531;-45
2023/01/01 09:53:16;;;;;;;;;6.00;4.75;;;;;19.54;43.26;101225.59;5097437;27;46121;-45
2023/01/01 09:55:57;;;;;;;;;3.25;3.25;;;;;19.53;43.35;101238.81;5097757;27;45291;-51
2023/01/01 09:58:41;;;;;;;;;3.00;3.00;;;;;19.47;43.65;101245.19;5097399;27;45336;-45
2023/01/01 10:01:06;;;;;;;;;5.00;4.00;;;;;19.53;43.01;101254.59;5098268;27;45501;-45
2023/01/01 10:03:31;;;;;;;;;6.00;4.67;;;;;19.52;43.49;101245.81;5097709;27;46438;-45
2023/01/01 10:06:19;;;;;;;;;3.33;2.67;;;;;19.51;43.35;101243.28;5107978;27;45468;-47
2023/01/01 10:09:19;;;;;;;;;3.25;2.00;;;;;19.45;43.25;101234.75;5100097;27;45375;-48
2023/01/01 10:12:01;;;;;;;;;4.00;4.00;;;;;19.49;43.36;101260.88;5097360;27;45305;-51
2023/01/01 10:14:46;;;;;;;;;6.00;4.50;;;;;19.47;43.29;101256.53;5118730;27;46469;-47
2023/01/01 10:17:18;;;;;;;;;4.00;4.00;;;;;19.41;43.68;101246.31;5098883;27;45225;-48
2023/01/01 10:19:49;;;;;;;;;4.25;4.00;;;;;19.49;43.35;101253.00;5098297;27;45397;-47
2023/01/01 10:22:21;;;;;;;;;3.25;3.00;;;;;19.47;43.65;101251.28;5098014;27;45499;-46
2023/01/01 10:25:19;;;;;;;;;4.25;3.00;;;;;19.46;43.62;101246.13;5096773;27;46206;-46
2023/01/01 10:27:49;;;;;;;;;4.50;3.50;;;;;19.42;43.74;101229.63;5097855;27;45982;-52
2023/01/01 10:30:18;;;;;;;;;5.50;4.00;;;;;19.47;43.30;101238.16;5098844;27;45402;-53
2023/01/01 10:32:47;;;;;;;;;5.00;4.00;;;;;19.49;43.41;101234.59;5097724;27;45596;-48
2023/01/01 10:35:29;;;;;;;;;5.25;4.50;;;;;19.52;43.32;101226.59;5096685;27;46104;-48
2023/01/01 10:37:57;;;;;;;;;5.50;3.25;;;;;19.51;43.47;101233.63;5096688;27;45934;-52
2023/01/01 10:40:25;;;;;;;;;3.00;3.00;;;;;19.52;43.89;101237.09;5096466;27;45414;-46
2023/01/01 10:43:02;;;;;;;;;3.00;3.00;;;;;19.50;43.88;101233.69;5097756;27;45224;-47
2023/01/01 10:45:35;;;;;;;;;2.00;2.00;;;;;19.47;43.57;101227.63;5096834;27;47211;-46
2023/01/01 10:48:20;;;;;;;;;3.75;3.75;;;;;19.49;43.42;101221.44;5097197;27;45190;-46
2023/01/01 10:51:02;;;;;;;;;5.00;3.00;;;;;19.49;43.61;101210.94;5097437;27;45355;-52
2023/01/01 10:53:39;;;;;;;;;4.00;2.75;;;;;19.50;43.36;101217.91;5097230;27;45523;-46
2023/01/01 10:56:11;;;;;;;;;5.00;5.00;;;;;19.49;43.76;101205.69;5097064;27;45421;-49
2023/01/01 10:58:53;;;;;;;;;4.50;4.00;;;;;19.49;43.45;101189.91;5113919;27;45111;-49
2023/01/01 11:01:23;;;;;;;;;3.00;3.00;;;;;19.50;43.31;101189.00;5115044;27;45310;-54
2023/01/01 11:03:56;;;;;;;;;4.00;4.00;;;;;19.44;43.56;101172.59;5103408;27;45322;-47
2023/01/01 11:06:21;;;;;;;;;5.25;3.50;;;;;19.51;43.56;101172.28;5100979;27;45496;-49
2023/01/01 11:08:58;;;;;;;;;5.50;4.00;;;;;19.51;43.61;101177.56;5106398;27;45430;-50
2023/01/01 11:11:30;;;;;;;;;4.50;4.50;;;;;19.52;43.79;101181.88;5121775;27;45302;-46
2023/01/01 11:13:58;;;;;;;;;3.25;3.25;;;;;19.47;43.58;101156.66;5108928;27;45351;-51
2023/01/01 11:16:26;;;;;;;;;6.25;4.00;;;;;19.53;43.56;101173.09;5105279;27;45996;-49
2023/01/01 11:19:00;;;;;;;;;5.00;3.50;;;;;19.52;43.16;101168.75;5106644;27;45421;-48
2023/01/01 11:21:25;;;;;;;;;4.00;3.00;;;;;19.50;43.94;101166.19;5082248;27;45369;-47
2023/01/01 11:24:25;;;;;;;;;4.00;4.00;;;;;19.51;43.43;101167.03;5105551;27;45453;-55
2023/01/01 11:26:52;;;;;;;;;4.25;4.25;;;;;19.43;43.94;101144.59;5107870;27;46429;-52
2023/01/01 11:29:27;;;;;;;;;6.50;4.00;;;;;19.51;43.57;101143.38;5100647;27;45845;-47
2023/01/01 11:31:52;;;;;;;;;5.00;4.00;;;;;19.44;43.50;101130.53;5081229;27;45405;-49
2023/01/01 11:34:32;;;;;;;;;5.50;4.00;;;;;19.50;43.83;101139.03;5100582;27;45465;-48
2023/01/01 11:37:13;;;;;;;;;3.75;3.00;;;;;19.47;43.88;101124.28;5099624;27;47235;-55
2023/01/01 11:39:43;;;;;;;;;4.50;4.50;;;;;19.49;43.72;101113.66;5114770;27;45298;-48